createdAt,value
2023-05-09T00:01:52.415Z,21.40
2023-05-09T00:04:19.779Z,23.47
2023-05-09T00:06:47.316Z,19.47
2023-05-09T00:09:14.509Z,22.93
2023-05-09T00:11:41.778Z,24.93
2023-05-09T00:14:09.203Z,24.37
2023-05-09T00:16:36.886Z,24.47
2023-05-09T00:19:04.819Z,17.43
2023-05-09T00:21:32.045Z,24.60
2023-05-09T00:24:00.366Z,25.83
2023-05-09T00:26:27.780Z,23.73
2023-05-09T00:28:55.000Z,17.80
2023-05-09T00:31:22.224Z,16.60
2023-05-09T00:33:49.584Z,14.97
2023-05-09T00:36:16.755Z,19.43
2023-05-09T00:38:43.962Z,18.80
2023-05-09T00:41:11.175Z,18.87
2023-05-09T00:43:38.390Z,16.43
2023-05-09T00:46:05.816Z,14.93
2023-05-09T00:48:33.032Z,17.60
2023-05-09T00:51:00.280Z,14.80
2023-05-09T00:53:27.504Z,18.07
2023-05-09T00:55:56.003Z,23.20
2023-05-09T00:58:23.293Z,25.07
2023-05-09T01:00:50.642Z,26.83
2023-05-09T01:03:18.544Z,29.67
2023-05-09T01:06:10.044Z,32.37
2023-05-09T01:08:40.693Z,24.23
2023-05-09T01:11:11.598Z,24.37
2023-05-09T01:13:45.249Z,19.70
2023-05-09T01:16:24.224Z,18.73
2023-05-09T01:19:03.063Z,17.43
2023-05-09T01:21:32.349Z,22.33
2023-05-09T01:24:18.308Z,26.20
2023-05-09T01:26:48.044Z,20.77
2023-05-09T01:29:24.416Z,23.07
2023-05-09T01:31:52.177Z,19.10
2023-05-09T01:34:20.247Z,17.40
2023-05-09T01:36:48.354Z,22.67
2023-05-09T01:39:17.245Z,20.20
2023-05-09T01:41:44.551Z,24.77
2023-05-09T01:44:12.252Z,19.40
2023-05-09T01:46:40.187Z,19.50
2023-05-09T01:49:09.091Z,17.97
2023-05-09T01:51:37.810Z,21.63
2023-05-09T01:54:05.940Z,18.77
2023-05-09T01:56:33.575Z,19.90
2023-05-09T01:59:01.100Z,20.60
2023-05-09T02:01:28.385Z,21.20
2023-05-09T02:03:56.661Z,21.03
2023-05-09T02:06:25.130Z,20.47
2023-05-09T02:08:52.355Z,21.90
2023-05-09T02:11:19.521Z,22.93
2023-05-09T02:13:46.917Z,23.73
2023-05-09T02:16:14.802Z,26.57
2023-05-09T02:18:42.049Z,26.60
2023-05-09T02:21:09.480Z,25.77
2023-05-09T02:23:36.732Z,23.13
2023-05-09T02:26:04.174Z,22.70
2023-05-09T02:28:31.518Z,22.40
2023-05-09T02:31:00.936Z,22.80
2023-05-09T02:33:28.882Z,22.23
2023-05-09T02:35:56.179Z,21.23
2023-05-09T02:38:23.617Z,21.87
2023-05-09T02:40:52.395Z,25.57
2023-05-09T02:43:19.896Z,22.63
2023-05-09T02:45:47.156Z,28.67
2023-05-09T02:48:14.424Z,23.60
2023-05-09T02:50:46.047Z,23.37
2023-05-09T02:53:13.270Z,18.00
2023-05-09T02:55:40.399Z,21.13
2023-05-09T02:58:14.095Z,21.77
2023-05-09T03:00:42.223Z,20.47
2023-05-09T03:03:09.650Z,24.83
2023-05-09T03:05:36.925Z,21.97
2023-05-09T03:08:04.960Z,24.43
2023-05-09T03:10:32.179Z,25.10
2023-05-09T03:12:59.378Z,24.83
2023-05-09T03:15:26.858Z,24.60
2023-05-09T03:17:54.091Z,23.83
2023-05-09T03:20:21.597Z,21.63
2023-05-09T03:22:48.765Z,24.03
2023-05-09T03:25:16.842Z,24.47
2023-05-09T03:27:44.236Z,23.67
2023-05-09T03:30:11.638Z,20.63
2023-05-09T03:32:39.137Z,23.63
2023-05-09T03:35:06.520Z,23.90
2023-05-09T03:37:33.754Z,23.17
2023-05-09T03:40:00.988Z,22.47
2023-05-09T03:42:28.224Z,23.83
2023-05-09T03:44:55.602Z,26.20
2023-05-09T03:47:22.832Z,23.30
2023-05-09T03:49:50.046Z,24.03
2023-05-09T03:52:17.283Z,33.03
2023-05-09T03:54:44.481Z,23.73
2023-05-09T03:57:11.617Z,23.57
2023-05-09T03:59:38.768Z,26.23
2023-05-09T04:02:05.992Z,23.67
2023-05-09T04:04:33.309Z,24.33
2023-05-09T04:07:00.517Z,27.27
2023-05-09T04:09:28.203Z,23.13
2023-05-09T04:11:55.375Z,23.97
2023-05-09T04:14:22.500Z,21.23
2023-05-09T04:16:49.680Z,25.07
2023-05-09T04:19:17.569Z,20.93
2023-05-09T04:21:44.802Z,25.03
2023-05-09T04:24:12.125Z,19.23
2023-05-09T04:26:39.377Z,21.00
2023-05-09T04:29:06.640Z,22.70
2023-05-09T04:31:33.826Z,22.13
2023-05-09T04:34:03.410Z,21.63
2023-05-09T04:36:31.845Z,21.20
2023-05-09T04:38:59.292Z,24.17
2023-05-09T04:41:26.624Z,20.97
2023-05-09T04:43:53.755Z,23.87
2023-05-09T04:46:22.688Z,20.17
2023-05-09T04:48:50.787Z,20.77
2023-05-09T04:51:17.925Z,17.90
2023-05-09T04:53:45.335Z,17.37
2023-05-09T04:56:16.396Z,18.57
2023-05-09T04:58:43.544Z,17.27
2023-05-09T05:01:10.854Z,18.73
2023-05-09T05:03:38.094Z,16.87
2023-05-09T05:06:05.391Z,17.90
2023-05-09T05:08:32.545Z,16.70
2023-05-09T05:10:59.733Z,17.97
2023-05-09T05:13:27.349Z,21.63
2023-05-09T05:15:54.904Z,17.30
2023-05-09T05:18:22.055Z,16.40
2023-05-09T05:20:49.260Z,19.70
2023-05-09T05:23:16.721Z,20.37
2023-05-09T05:25:43.886Z,20.37
2023-05-09T05:28:11.038Z,17.90
2023-05-09T05:30:38.433Z,20.47
2023-05-09T05:33:08.401Z,19.90
2023-05-09T05:35:35.584Z,19.33
2023-05-09T05:38:02.739Z,20.40
2023-05-09T05:40:30.020Z,15.55
2023-05-09T05:42:59.977Z,11.85
2023-05-09T05:45:27.193Z,16.60
2023-05-09T05:47:54.591Z,17.08
2023-05-09T05:50:21.831Z,14.38
2023-05-09T05:52:48.948Z,15.55
2023-05-09T05:55:16.657Z,12.43
2023-05-09T05:57:43.870Z,14.10
2023-05-09T06:00:11.831Z,14.30
2023-05-09T06:02:45.352Z,16.02
2023-05-09T06:05:13.010Z,16.95
2023-05-09T06:07:41.408Z,15.77
2023-05-09T06:10:11.313Z,16.15
2023-05-09T06:12:41.649Z,16.05
2023-05-09T06:15:12.186Z,18.23
2023-05-09T06:17:39.503Z,16.25
2023-05-09T06:20:07.129Z,14.35
2023-05-09T06:22:34.285Z,14.75
2023-05-09T06:25:01.632Z,13.63
2023-05-09T06:27:28.908Z,12.65
2023-05-09T06:29:56.625Z,15.43
2023-05-09T06:32:25.091Z,12.13
2023-05-09T06:34:52.751Z,13.40
2023-05-09T06:37:20.439Z,13.65
2023-05-09T06:39:47.916Z,13.07
2023-05-09T06:42:15.110Z,15.35
2023-05-09T06:44:43.806Z,12.73
2023-05-09T06:47:11.241Z,15.23
2023-05-09T06:49:38.463Z,9.73
2023-05-09T06:52:05.661Z,18.15
2023-05-09T06:54:32.798Z,8.90
2023-05-09T06:57:00.398Z,10.77
2023-05-09T06:59:27.878Z,10.93
2023-05-09T07:01:55.857Z,10.10
2023-05-09T07:04:23.128Z,9.55
2023-05-09T07:06:50.367Z,10.98
2023-05-09T07:09:20.466Z,10.50
2023-05-09T07:11:47.677Z,14.25
2023-05-09T07:14:14.973Z,10.65
2023-05-09T07:16:42.392Z,11.63
2023-05-09T07:19:12.640Z,12.25
2023-05-09T07:21:40.050Z,7.60
2023-05-09T07:24:07.457Z,10.27
2023-05-09T07:26:39.193Z,9.80
2023-05-09T07:29:06.660Z,8.10
2023-05-09T07:31:36.693Z,10.35
2023-05-09T07:34:08.079Z,8.68
2023-05-09T07:39:10.519Z,6.20
2023-05-09T07:41:42.757Z,7.97
2023-05-09T07:44:10.013Z,10.57
2023-05-09T07:46:44.816Z,11.75
2023-05-09T07:49:12.481Z,7.93
2023-05-09T07:51:39.606Z,11.63
2023-05-09T07:54:06.952Z,9.45
2023-05-09T07:56:34.147Z,9.35
2023-05-09T07:59:03.344Z,9.90
2023-05-09T08:01:30.732Z,7.10
2023-05-09T08:03:58.101Z,6.30
2023-05-09T08:06:26.340Z,7.40
2023-05-09T08:08:53.552Z,6.90
2023-05-09T08:11:20.694Z,9.75
2023-05-09T08:13:48.247Z,7.55
2023-05-09T08:16:17.556Z,6.90
2023-05-09T08:18:45.125Z,10.43
2023-05-09T08:21:12.362Z,6.47
2023-05-09T08:23:41.218Z,12.93
2023-05-09T08:26:08.453Z,7.78
2023-05-09T08:28:35.649Z,7.15
2023-05-09T08:31:02.848Z,12.15
2023-05-09T08:33:30.039Z,12.23
2023-05-09T08:35:57.168Z,8.15
2023-05-09T08:38:24.822Z,8.65
2023-05-09T08:40:52.163Z,6.28
2023-05-09T08:43:21.070Z,6.13
2023-05-09T08:45:51.669Z,7.57
2023-05-09T08:48:19.417Z,5.82
2023-05-09T08:50:46.598Z,6.38
2023-05-09T08:53:14.290Z,7.88
2023-05-09T08:55:41.561Z,7.45
2023-05-09T08:58:09.185Z,6.05
2023-05-09T09:00:41.182Z,5.35
2023-05-09T09:03:08.445Z,9.25
2023-05-09T09:05:41.678Z,6.00
2023-05-09T09:08:10.100Z,6.93
2023-05-09T09:10:40.144Z,5.68
2023-05-09T09:13:08.653Z,6.18
2023-05-09T09:15:37.282Z,8.43
2023-05-09T09:18:07.904Z,10.77
2023-05-09T09:20:36.349Z,6.75
2023-05-09T09:23:05.575Z,5.75
2023-05-09T09:25:32.811Z,7.88
2023-05-09T09:28:00.035Z,5.32
2023-05-09T09:30:27.543Z,8.55
2023-05-09T09:32:55.034Z,8.40
2023-05-09T09:35:22.208Z,7.05
2023-05-09T09:37:49.359Z,9.15
2023-05-09T09:40:18.260Z,9.43
2023-05-09T09:42:46.511Z,6.45
2023-05-09T09:45:16.834Z,7.55
2023-05-09T09:47:44.477Z,5.22
2023-05-09T09:50:16.055Z,8.48
2023-05-09T09:52:50.633Z,7.22
2023-05-09T09:55:18.759Z,5.55
2023-05-09T09:57:46.289Z,9.00
2023-05-09T10:00:14.732Z,6.70
2023-05-09T10:02:52.150Z,7.25
2023-05-09T10:05:20.791Z,4.30
2023-05-09T10:07:52.039Z,8.05
2023-05-09T10:10:19.857Z,4.30
2023-05-09T10:12:47.519Z,4.63
2023-05-09T10:15:18.829Z,14.20
2023-05-09T10:17:46.275Z,5.40
2023-05-09T10:20:14.400Z,9.27
2023-05-09T10:22:41.838Z,8.38
2023-05-09T10:25:13.797Z,5.78
2023-05-09T10:27:45.804Z,7.15
2023-05-09T10:30:19.212Z,9.10
2023-05-09T10:32:58.899Z,10.05
2023-05-09T10:35:28.596Z,6.22
2023-05-09T10:38:00.084Z,6.18
2023-05-09T10:40:28.551Z,10.73
2023-05-09T10:42:55.752Z,8.27
2023-05-09T10:45:23.310Z,8.02
2023-05-09T10:47:53.087Z,7.38
2023-05-09T10:50:21.510Z,7.50
2023-05-09T10:53:17.815Z,5.38
2023-05-09T10:55:47.999Z,14.40
2023-05-09T10:58:21.315Z,7.38
2023-05-09T11:00:49.308Z,9.10
2023-05-09T11:03:19.200Z,9.45
2023-05-09T11:05:48.276Z,5.97
2023-05-09T11:08:19.476Z,5.22
2023-05-09T11:10:46.930Z,13.32
2023-05-09T11:13:14.536Z,8.63
2023-05-09T11:15:52.614Z,11.82
2023-05-09T11:18:19.752Z,14.35
2023-05-09T11:20:49.132Z,6.07
2023-05-09T11:23:17.601Z,5.78
2023-05-09T11:25:47.532Z,4.43
2023-05-09T11:28:35.470Z,4.88
2023-05-09T11:31:14.777Z,9.75
2023-05-09T11:33:42.704Z,5.63
2023-05-09T11:36:29.736Z,7.47
2023-05-09T11:39:07.213Z,5.18
2023-05-09T11:41:44.857Z,6.13
2023-05-09T11:44:18.952Z,4.97
2023-05-09T11:46:50.032Z,11.50
2023-05-09T11:49:19.378Z,6.05
2023-05-09T11:51:46.752Z,6.05
2023-05-09T11:54:15.089Z,10.77
2023-05-09T11:56:42.614Z,11.20
2023-05-09T11:59:13.151Z,8.63
2023-05-09T12:01:40.657Z,5.63
2023-05-09T12:04:08.679Z,11.45
2023-05-09T12:06:36.309Z,6.75
2023-05-09T12:09:03.442Z,6.30
2023-05-09T12:11:32.536Z,12.52
2023-05-09T12:13:59.841Z,7.47
2023-05-09T12:16:27.076Z,5.65
2023-05-09T12:18:54.931Z,5.30
2023-05-09T12:21:22.427Z,16.15
2023-05-09T12:23:52.368Z,8.55
2023-05-09T12:26:20.718Z,5.53
2023-05-09T12:28:48.175Z,7.65
2023-05-09T12:31:15.536Z,6.38
2023-05-09T12:33:42.901Z,10.95
2023-05-09T12:36:11.333Z,10.98
2023-05-09T12:38:38.953Z,3.97
2023-05-09T12:41:22.403Z,5.07
2023-05-09T12:43:57.724Z,4.05
2023-05-09T12:46:25.718Z,7.90
2023-05-09T12:48:53.052Z,6.40
2023-05-09T12:51:21.391Z,9.23
2023-05-09T12:53:48.760Z,7.45
2023-05-09T12:56:17.549Z,6.95
2023-05-09T12:58:55.420Z,7.32
2023-05-09T13:01:24.573Z,5.32
2023-05-09T13:03:52.449Z,8.45
2023-05-09T13:06:21.078Z,8.85
2023-05-09T13:08:59.022Z,7.22
2023-05-09T13:11:26.829Z,6.13
2023-05-09T13:13:55.232Z,9.55
2023-05-09T13:16:23.611Z,12.50
2023-05-09T13:18:50.849Z,5.57
2023-05-09T13:21:18.093Z,6.72
2023-05-09T13:23:45.636Z,4.93
2023-05-09T13:26:13.073Z,5.85
2023-05-09T13:28:40.574Z,9.25
2023-05-09T13:31:08.175Z,13.20
2023-05-09T13:33:35.430Z,7.43
2023-05-09T13:36:02.634Z,6.57
2023-05-09T13:38:36.618Z,4.75
2023-05-09T13:41:03.904Z,14.65
2023-05-09T13:43:31.667Z,9.68
2023-05-09T13:45:58.830Z,10.23
2023-05-09T13:48:26.064Z,8.40
2023-05-09T13:50:53.327Z,9.93
2023-05-09T13:53:20.582Z,10.25
2023-05-09T13:55:47.897Z,13.07
2023-05-09T13:58:15.042Z,22.65
2023-05-09T14:00:42.249Z,7.03
2023-05-09T14:03:09.417Z,13.90
2023-05-09T14:05:36.580Z,10.05
2023-05-09T14:08:03.751Z,18.52
2023-05-09T14:10:30.956Z,7.97
2023-05-09T14:12:58.746Z,5.60
2023-05-09T14:15:26.057Z,9.95
2023-05-09T14:17:53.320Z,10.25
2023-05-09T14:20:21.339Z,8.43
2023-05-09T14:22:48.722Z,6.22
2023-05-09T14:25:15.978Z,6.15
2023-05-09T14:27:43.155Z,15.13
2023-05-09T14:30:10.606Z,8.82
2023-05-09T14:32:37.817Z,15.50
2023-05-09T14:35:05.124Z,10.13
2023-05-09T14:37:33.050Z,5.72
2023-05-09T14:40:05.463Z,7.28
2023-05-09T14:42:33.001Z,13.82
2023-05-09T14:45:00.267Z,8.82
2023-05-09T14:47:28.041Z,12.90
2023-05-09T14:49:56.054Z,10.07
2023-05-09T14:52:23.239Z,7.90
2023-05-09T14:54:50.421Z,9.63
2023-05-09T14:57:17.658Z,11.52
2023-05-09T14:59:44.798Z,7.20
2023-05-09T15:02:12.520Z,12.63
2023-05-09T15:04:41.345Z,10.57
2023-05-09T15:07:08.896Z,15.88
2023-05-09T15:09:36.120Z,8.82
2023-05-09T15:12:03.321Z,4.90
2023-05-09T15:14:30.491Z,4.00
2023-05-09T15:17:01.513Z,8.70
2023-05-09T15:19:31.690Z,11.32
2023-05-09T15:21:59.482Z,18.65
2023-05-09T15:24:29.842Z,7.60
2023-05-09T15:26:57.077Z,9.30
2023-05-09T15:29:24.426Z,12.82
2023-05-09T15:31:51.602Z,6.30
2023-05-09T15:34:18.970Z,7.45
2023-05-09T15:36:46.297Z,9.85
2023-05-09T15:39:13.921Z,4.93
2023-05-09T15:41:41.149Z,11.18
2023-05-09T15:44:08.512Z,7.53
2023-05-09T15:46:35.865Z,10.35
2023-05-09T15:49:05.689Z,11.35
2023-05-09T15:51:33.027Z,7.13
2023-05-09T15:54:00.441Z,4.05
2023-05-09T15:56:27.769Z,9.95
2023-05-09T15:58:54.942Z,6.55
2023-05-09T16:01:22.147Z,5.93
2023-05-09T16:03:49.676Z,9.50
2023-05-09T16:06:17.312Z,7.35
2023-05-09T16:08:46.317Z,11.55
2023-05-09T16:11:13.608Z,13.18
2023-05-09T16:13:40.767Z,9.05
2023-05-09T16:16:08.090Z,12.05
2023-05-09T16:18:35.297Z,14.52
2023-05-09T16:21:02.639Z,14.38
2023-05-09T16:23:30.061Z,5.90
2023-05-09T16:25:57.202Z,7.13
2023-05-09T16:28:24.714Z,7.25
2023-05-09T16:30:52.077Z,5.75
2023-05-09T16:33:19.327Z,7.22
2023-05-09T16:35:46.609Z,6.55
2023-05-09T16:38:13.968Z,13.80
2023-05-09T16:40:41.380Z,9.88
2023-05-09T16:43:08.635Z,11.02
2023-05-09T16:45:36.121Z,7.32
2023-05-09T16:48:06.214Z,8.40
2023-05-09T16:50:33.758Z,5.72
2023-05-09T16:53:01.913Z,10.95
2023-05-09T16:55:29.361Z,6.20
2023-05-09T16:57:56.580Z,8.27
2023-05-09T17:00:23.853Z,5.80
2023-05-09T17:02:51.399Z,5.55
2023-05-09T17:05:18.807Z,6.93
2023-05-09T17:07:46.224Z,8.82
2023-05-09T17:10:14.238Z,8.25
2023-05-09T17:12:42.034Z,4.57
2023-05-09T17:15:09.640Z,16.90
2023-05-09T17:17:36.968Z,8.13
2023-05-09T17:20:07.205Z,8.77
2023-05-09T17:22:36.991Z,8.55
2023-05-09T17:25:04.840Z,8.65
2023-05-09T17:27:32.644Z,13.65
2023-05-09T17:29:59.927Z,9.50
2023-05-09T17:32:27.305Z,14.00
2023-05-09T17:34:55.811Z,10.02
2023-05-09T17:37:23.017Z,15.13
2023-05-09T17:39:51.747Z,17.20
2023-05-09T17:42:18.984Z,9.25
2023-05-09T17:44:47.326Z,13.07
2023-05-09T17:47:15.271Z,10.90
2023-05-09T17:49:42.524Z,13.52
2023-05-09T17:52:09.712Z,17.30
2023-05-09T17:54:37.509Z,7.93
2023-05-09T17:57:04.847Z,13.85
2023-05-09T17:59:32.067Z,13.07
2023-05-09T18:01:59.358Z,7.55
2023-05-09T18:04:27.300Z,17.30
2023-05-09T18:06:54.503Z,7.75
2023-05-09T18:09:21.639Z,8.85
2023-05-09T18:11:48.851Z,9.40
2023-05-09T18:14:16.635Z,14.73
2023-05-09T18:16:43.910Z,8.93
2023-05-09T18:19:11.105Z,12.98
2023-05-09T18:21:38.733Z,8.52
2023-05-09T18:24:06.267Z,9.68
2023-05-09T18:26:33.437Z,17.77
2023-05-09T18:29:00.607Z,18.30
2023-05-09T18:31:27.867Z,11.88
2023-05-09T18:33:55.114Z,27.75
2023-05-09T18:36:22.666Z,21.50
2023-05-09T18:38:49.846Z,14.88
2023-05-09T18:41:17.701Z,18.77
2023-05-09T18:43:47.759Z,15.18
2023-05-09T18:46:21.217Z,26.08
2023-05-09T18:48:50.457Z,19.48
2023-05-09T18:51:18.264Z,21.00
2023-05-09T18:53:47.041Z,25.67
2023-05-09T18:56:14.449Z,21.08
2023-05-09T18:58:41.608Z,27.30
2023-05-09T19:01:11.516Z,27.63
2023-05-09T19:03:45.943Z,29.58
2023-05-09T19:06:13.907Z,25.05
2023-05-09T19:08:41.481Z,16.58
2023-05-09T19:11:08.812Z,18.77
2023-05-09T19:13:38.411Z,24.20
2023-05-09T19:16:07.025Z,34.53
2023-05-09T19:18:34.658Z,20.23
2023-05-09T19:21:01.877Z,23.90
2023-05-09T19:23:29.303Z,18.35
2023-05-09T19:25:56.621Z,12.52
2023-05-09T19:28:24.055Z,13.68
2023-05-09T19:30:51.502Z,20.60
2023-05-09T19:33:19.568Z,12.18
2023-05-09T19:35:46.825Z,11.70
2023-05-09T19:38:14.012Z,9.98
2023-05-09T19:40:41.653Z,9.90
2023-05-09T19:43:08.794Z,9.23
2023-05-09T19:45:35.942Z,7.90
2023-05-09T19:48:03.259Z,14.98
2023-05-09T19:50:31.034Z,10.52
2023-05-09T19:52:58.490Z,10.63
2023-05-09T19:55:25.763Z,10.75
2023-05-09T19:57:52.926Z,10.38
2023-05-09T20:00:20.296Z,12.20
2023-05-09T20:02:47.739Z,12.48
2023-05-09T20:05:14.978Z,14.85
2023-05-09T20:07:42.543Z,12.93
2023-05-09T20:10:12.614Z,15.48
2023-05-09T20:12:39.925Z,10.82
2023-05-09T20:15:08.132Z,10.25
2023-05-09T20:17:35.367Z,10.68
2023-05-09T20:20:02.583Z,16.08
2023-05-09T20:22:29.844Z,11.20
2023-05-09T20:24:57.003Z,10.75
2023-05-09T20:27:24.162Z,14.93
2023-05-09T20:29:51.390Z,10.93
2023-05-09T20:32:18.660Z,12.23
2023-05-09T20:34:45.870Z,8.90
2023-05-09T20:37:13.115Z,11.77
2023-05-09T20:39:40.582Z,10.10
2023-05-09T20:42:07.760Z,9.55
2023-05-09T20:44:35.007Z,11.48
2023-05-09T20:47:02.189Z,9.32
2023-05-09T20:49:29.400Z,9.98
2023-05-09T20:51:56.541Z,9.88
2023-05-09T20:54:24.226Z,10.70
2023-05-09T20:56:51.822Z,14.13
2023-05-09T20:59:19.067Z,10.82
2023-05-09T21:01:46.284Z,8.50
2023-05-09T21:04:13.484Z,9.50
2023-05-09T21:06:40.761Z,10.65
2023-05-09T21:09:09.216Z,11.83
2023-05-09T21:11:38.374Z,7.65
2023-05-09T21:14:05.626Z,11.75
2023-05-09T21:16:33.031Z,7.00
2023-05-09T21:19:02.634Z,8.10
2023-05-09T21:21:29.922Z,7.45
2023-05-09T21:23:57.181Z,13.23
2023-05-09T21:26:24.413Z,8.03
2023-05-09T21:28:52.237Z,8.37
2023-05-09T21:31:19.387Z,9.33
2023-05-09T21:33:46.588Z,7.77
2023-05-09T21:36:13.874Z,10.70
2023-05-09T21:38:41.045Z,8.63
2023-05-09T21:41:08.223Z,9.43
2023-05-09T21:43:36.131Z,10.13
2023-05-09T21:46:04.896Z,8.60
2023-05-09T21:48:32.282Z,10.93
2023-05-09T21:51:03.036Z,8.80
2023-05-09T21:53:31.389Z,7.47
2023-05-09T21:55:58.705Z,6.93
2023-05-09T21:58:26.052Z,9.90
2023-05-09T22:00:53.220Z,6.33
2023-05-09T22:03:20.508Z,8.43
2023-05-09T22:05:47.716Z,12.97
2023-05-09T22:08:14.895Z,12.17
2023-05-09T22:10:42.352Z,7.17
2023-05-09T22:13:10.191Z,12.70
2023-05-09T22:15:37.432Z,7.93
2023-05-09T22:18:04.860Z,8.43
2023-05-09T22:20:32.136Z,7.43
2023-05-09T22:22:59.309Z,10.53
2023-05-09T22:25:26.426Z,15.23
2023-05-09T22:27:54.507Z,9.23
2023-05-09T22:30:21.713Z,8.63
2023-05-09T22:32:48.870Z,9.77
2023-05-09T22:35:15.991Z,9.23
2023-05-09T22:37:43.147Z,11.60
2023-05-09T22:40:11.203Z,7.77
2023-05-09T22:42:38.300Z,12.73
2023-05-09T22:45:05.767Z,9.10
2023-05-09T22:47:33.073Z,10.00
2023-05-09T22:50:00.436Z,10.10
2023-05-09T22:52:27.669Z,8.30
2023-05-09T22:54:54.872Z,19.20
2023-05-09T22:57:23.725Z,9.97
2023-05-09T22:59:51.188Z,9.23
2023-05-09T23:02:18.373Z,12.33
2023-05-09T23:04:45.571Z,8.73
2023-05-09T23:07:13.218Z,7.37
2023-05-09T23:09:40.889Z,9.60
2023-05-09T23:12:11.725Z,8.10
2023-05-09T23:14:39.313Z,9.03
2023-05-09T23:17:06.639Z,13.70
2023-05-09T23:19:33.808Z,9.67
2023-05-09T23:22:01.065Z,15.73
2023-05-09T23:24:28.204Z,9.57
2023-05-09T23:26:55.407Z,11.30
2023-05-09T23:29:22.571Z,8.33
2023-05-09T23:31:49.844Z,13.40
2023-05-09T23:34:17.518Z,7.47
2023-05-09T23:36:44.740Z,17.57
2023-05-09T23:39:12.136Z,10.70
2023-05-09T23:41:39.354Z,12.80
2023-05-09T23:44:07.724Z,9.50
2023-05-09T23:46:34.973Z,10.87
2023-05-09T23:49:02.217Z,13.77
2023-05-09T23:52:03.303Z,11.80
2023-05-09T23:54:30.429Z,14.47
2023-05-09T23:56:58.128Z,9.13
2023-05-09T23:59:25.299Z,10.63
